sensor_id;sensor_type;location;lat;lon;timestamp;pressure;altitude;pressure_sealevel;temperature;humidity
36798;BME280;22748;8.426;99.512;2023-08-20T00:02:31;100583.25;;;30.01;66.51
36798;BME280;22748;8.426;99.512;2023-08-20T00:05:05;100583.88;;;30.03;66.55
36798;BME280;22748;8.426;99.512;2023-08-20T00:07:37;100579.63;;;29.88;66.64
36798;BME280;22748;8.426;99.512;2023-08-20T00:10:09;100595.75;;;29.95;66.57
36798;BME280;22748;8.426;99.512;2023-08-20T00:12:39;100593.66;;;29.97;66.67
36798;BME280;22748;8.426;99.512;2023-08-20T00:15:10;100601.75;;;29.97;66.95
36798;BME280;22748;8.426;99.512;2023-08-20T00:17:42;100602.34;;;29.99;66.95
36798;BME280;22748;8.426;99.512;2023-08-20T00:20:16;100596.56;;;29.96;66.91
36798;BME280;22748;8.426;99.512;2023-08-20T00:22:47;100593.66;;;29.97;66.77
36798;BME280;22748;8.426;99.512;2023-08-20T00:25:20;100594.69;;;29.96;67.28
36798;BME280;22748;8.426;99.512;2023-08-20T00:27:57;100592.88;;;29.90;67.45
36798;BME280;22748;8.426;99.512;2023-08-20T00:30:28;100598.66;;;29.93;67.06
36798;BME280;22748;8.426;99.512;2023-08-20T00:32:58;100600.31;;;29.94;67.12
36798;BME280;22748;8.426;99.512;2023-08-20T00:35:32;100602.03;;;29.82;67.67
36798;BME280;22748;8.426;99.512;2023-08-20T00:38:02;100609.03;;;29.83;68.01
36798;BME280;22748;8.426;99.512;2023-08-20T00:40:37;100615.44;;;29.89;68.02
36798;BME280;22748;8.426;99.512;2023-08-20T00:43:13;100626.75;;;29.59;68.82
36798;BME280;22748;8.426;99.512;2023-08-20T00:45:44;100623.44;;;29.57;68.76
36798;BME280;22748;8.426;99.512;2023-08-20T00:48:16;100628.38;;;29.67;68.81
36798;BME280;22748;8.426;99.512;2023-08-20T00:50:50;100632.38;;;29.51;68.93
36798;BME280;22748;8.426;99.512;2023-08-20T00:53:22;100632.75;;;29.61;69.00
36798;BME280;22748;8.426;99.512;2023-08-20T00:55:53;100643.28;;;29.69;68.82
36798;BME280;22748;8.426;99.512;2023-08-20T00:58:23;100643.84;;;29.85;68.51
36798;BME280;22748;8.426;99.512;2023-08-20T01:00:54;100647.59;;;29.84;68.29
36798;BME280;22748;8.426;99.512;2023-08-20T01:03:25;100655.84;;;29.89;67.89
36798;BME280;22748;8.426;99.512;2023-08-20T01:05:59;100654.16;;;29.94;68.14
36798;BME280;22748;8.426;99.512;2023-08-20T01:08:37;100663.66;;;29.97;68.18
36798;BME280;22748;8.426;99.512;2023-08-20T01:11:15;100660.72;;;30.05;67.75
36798;BME280;22748;8.426;99.512;2023-08-20T01:13:46;100664.03;;;30.07;68.06
36798;BME280;22748;8.426;99.512;2023-08-20T01:16:17;100668.16;;;30.10;68.07
36798;BME280;22748;8.426;99.512;2023-08-20T01:18:48;100669.75;;;30.18;67.97
36798;BME280;22748;8.426;99.512;2023-08-20T01:21:29;100670.16;;;30.21;68.13
36798;BME280;22748;8.426;99.512;2023-08-20T01:24:15;100664.56;;;30.23;67.88
36798;BME280;22748;8.426;99.512;2023-08-20T01:27:10;100666.59;;;30.27;67.72
36798;BME280;22748;8.426;99.512;2023-08-20T01:29:51;100672.19;;;30.32;67.73
36798;BME280;22748;8.426;99.512;2023-08-20T01:32:23;100670.25;;;30.40;67.87
36798;BME280;22748;8.426;99.512;2023-08-20T01:34:54;100674.97;;;30.44;67.22
36798;BME280;22748;8.426;99.512;2023-08-20T01:37:26;100671.66;;;30.49;67.07
36798;BME280;22748;8.426;99.512;2023-08-20T01:39:57;100678.22;;;30.53;66.86
36798;BME280;22748;8.426;99.512;2023-08-20T01:42:41;100680.91;;;30.60;66.98
36798;BME280;22748;8.426;99.512;2023-08-20T01:45:15;100679.63;;;30.62;66.82
36798;BME280;22748;8.426;99.512;2023-08-20T01:47:47;100675.50;;;30.60;66.41
36798;BME280;22748;8.426;99.512;2023-08-20T01:50:17;100677.75;;;30.63;65.52
36798;BME280;22748;8.426;99.512;2023-08-20T01:52:56;100668.56;;;30.70;65.02
36798;BME280;22748;8.426;99.512;2023-08-20T01:55:27;100669.56;;;30.76;64.62
36798;BME280;22748;8.426;99.512;2023-08-20T01:57:56;100673.53;;;30.73;64.44
36798;BME280;22748;8.426;99.512;2023-08-20T02:00:29;100674.34;;;30.74;64.06
36798;BME280;22748;8.426;99.512;2023-08-20T02:03:02;100666.03;;;30.75;64.28
36798;BME280;22748;8.426;99.512;2023-08-20T02:05:34;100673.91;;;30.77;64.42
36798;BME280;22748;8.426;99.512;2023-08-20T02:08:05;100671.81;;;30.79;63.96
36798;BME280;22748;8.426;99.512;2023-08-20T02:10:37;100668.47;;;30.84;63.81
36798;BME280;22748;8.426;99.512;2023-08-20T02:13:06;100669.69;;;30.88;63.65
36798;BME280;22748;8.426;99.512;2023-08-20T02:15:39;100665.75;;;30.90;62.89
36798;BME280;22748;8.426;99.512;2023-08-20T02:18:10;100673.22;;;30.88;63.52
36798;BME280;22748;8.426;99.512;2023-08-20T02:20:42;100668.84;;;30.87;63.52
36798;BME280;22748;8.426;99.512;2023-08-20T02:23:13;100664.69;;;30.91;63.07
36798;BME280;22748;8.426;99.512;2023-08-20T02:25:45;100666.09;;;30.94;62.82
36798;BME280;22748;8.426;99.512;2023-08-20T02:28:16;100665.88;;;30.95;62.48
36798;BME280;22748;8.426;99.512;2023-08-20T02:30:50;100666.50;;;30.98;62.15
36798;BME280;22748;8.426;99.512;2023-08-20T02:33:20;100667.69;;;31.02;62.02
36798;BME280;22748;8.426;99.512;2023-08-20T02:35:51;100660.44;;;31.02;61.90
36798;BME280;22748;8.426;99.512;2023-08-20T02:38:22;100662.31;;;31.02;62.23
36798;BME280;22748;8.426;99.512;2023-08-20T02:40:53;100664.53;;;31.05;62.33
36798;BME280;22748;8.426;99.512;2023-08-20T02:43:26;100660.81;;;31.06;61.10
36798;BME280;22748;8.426;99.512;2023-08-20T02:46:10;100663.66;;;31.11;61.25
36798;BME280;22748;8.426;99.512;2023-08-20T02:48:40;100664.88;;;31.15;61.56
36798;BME280;22748;8.426;99.512;2023-08-20T02:51:11;100666.06;;;31.19;61.49
36798;BME280;22748;8.426;99.512;2023-08-20T02:53:43;100660.00;;;31.24;61.39
36798;BME280;22748;8.426;99.512;2023-08-20T02:56:14;100666.00;;;31.26;61.03
36798;BME280;22748;8.426;99.512;2023-08-20T02:58:45;100670.94;;;31.29;60.83
36798;BME280;22748;8.426;99.512;2023-08-20T03:01:22;100671.53;;;31.31;61.07
36798;BME280;22748;8.426;99.512;2023-08-20T03:03:53;100663.28;;;31.26;60.97
36798;BME280;22748;8.426;99.512;2023-08-20T03:06:23;100664.13;;;31.26;61.15
36798;BME280;22748;8.426;99.512;2023-08-20T03:08:54;100660.38;;;31.27;60.86
36798;BME280;22748;8.426;99.512;2023-08-20T03:11:24;100657.28;;;31.24;61.44
36798;BME280;22748;8.426;99.512;2023-08-20T03:14:00;100658.13;;;31.24;61.00
36798;BME280;22748;8.426;99.512;2023-08-20T03:16:33;100652.13;;;31.22;60.96
36798;BME280;22748;8.426;99.512;2023-08-20T03:19:04;100654.66;;;31.17;60.82
36798;BME280;22748;8.426;99.512;2023-08-20T03:21:36;100658.13;;;31.24;60.01
36798;BME280;22748;8.426;99.512;2023-08-20T03:24:07;100654.38;;;31.25;60.48
36798;BME280;22748;8.426;99.512;2023-08-20T03:26:41;100653.47;;;31.31;60.10
36798;BME280;22748;8.426;99.512;2023-08-20T03:29:12;100653.03;;;31.34;60.00
36798;BME280;22748;8.426;99.512;2023-08-20T03:31:44;100653.47;;;31.31;60.38
36798;BME280;22748;8.426;99.512;2023-08-20T03:34:15;100649.25;;;31.35;60.21
36798;BME280;22748;8.426;99.512;2023-08-20T03:36:49;100644.84;;;31.41;59.95
36798;BME280;22748;8.426;99.512;2023-08-20T03:39:21;100635.06;;;31.47;59.63
36798;BME280;22748;8.426;99.512;2023-08-20T03:41:51;100641.63;;;31.51;59.29
36798;BME280;22748;8.426;99.512;2023-08-20T03:44:24;100638.94;;;31.51;59.66
36798;BME280;22748;8.426;99.512;2023-08-20T03:47:00;100634.13;;;31.53;59.88
36798;BME280;22748;8.426;99.512;2023-08-20T03:49:31;100633.09;;;31.54;59.92
36798;BME280;22748;8.426;99.512;2023-08-20T03:52:03;100624.09;;;31.60;59.76
36798;BME280;22748;8.426;99.512;2023-08-20T03:54:34;100624.00;;;31.67;58.72
36798;BME280;22748;8.426;99.512;2023-08-20T03:57:04;100620.25;;;31.68;59.47
36798;BME280;22748;8.426;99.512;2023-08-20T03:59:35;100622.72;;;31.69;59.18
36798;BME280;22748;8.426;99.512;2023-08-20T04:02:09;100619.56;;;31.72;58.41
36798;BME280;22748;8.426;99.512;2023-08-20T04:04:39;100622.63;;;31.76;58.16
36798;BME280;22748;8.426;99.512;2023-08-20T04:07:11;100621.81;;;31.75;58.94
36798;BME280;22748;8.426;99.512;2023-08-20T04:09:40;100628.25;;;31.74;59.62
36798;BME280;22748;8.426;99.512;2023-08-20T04:12:13;100618.06;;;31.76;58.97
36798;BME280;22748;8.426;99.512;2023-08-20T04:14:43;100617.63;;;31.80;58.17
36798;BME280;22748;8.426;99.512;2023-08-20T04:17:19;100619.84;;;31.83;57.96
36798;BME280;22748;8.426;99.512;2023-08-20T04:19:50;100611.53;;;31.84;58.55
36798;BME280;22748;8.426;99.512;2023-08-20T04:22:21;100622.31;;;31.84;58.02
36798;BME280;22748;8.426;99.512;2023-08-20T04:24:51;100615.63;;;31.87;58.34
36798;BME280;22748;8.426;99.512;2023-08-20T04:27:25;100622.44;;;31.89;58.10
36798;BME280;22748;8.426;99.512;2023-08-20T04:29:55;100618.47;;;31.92;57.91
36798;BME280;22748;8.426;99.512;2023-08-20T04:32:30;100611.47;;;32.03;57.58
36798;BME280;22748;8.426;99.512;2023-08-20T04:35:00;100606.06;;;32.03;57.92
36798;BME280;22748;8.426;99.512;2023-08-20T04:37:31;100593.63;;;32.02;58.40
36798;BME280;22748;8.426;99.512;2023-08-20T04:40:06;100598.34;;;32.06;58.23
36798;BME280;22748;8.426;99.512;2023-08-20T04:42:37;100592.22;;;31.99;58.32
36798;BME280;22748;8.426;99.512;2023-08-20T04:45:08;100594.44;;;32.02;57.54
36798;BME280;22748;8.426;99.512;2023-08-20T04:47:41;100592.94;;;32.06;58.05
36798;BME280;22748;8.426;99.512;2023-08-20T04:50:13;100586.72;;;32.06;58.29
36798;BME280;22748;8.426;99.512;2023-08-20T04:52:44;100578.34;;;32.07;57.31
36798;BME280;22748;8.426;99.512;2023-08-20T04:55:14;100569.81;;;32.10;57.21
36798;BME280;22748;8.426;99.512;2023-08-20T04:57:46;100565.69;;;32.08;57.33
36798;BME280;22748;8.426;99.512;2023-08-20T05:00:16;100569.81;;;32.10;57.27
36798;BME280;22748;8.426;99.512;2023-08-20T05:02:48;100563.47;;;32.16;57.69
36798;BME280;22748;8.426;99.512;2023-08-20T05:05:19;100559.00;;;32.22;57.63
36798;BME280;22748;8.426;99.512;2023-08-20T05:07:50;100550.78;;;32.29;57.67
36798;BME280;22748;8.426;99.512;2023-08-20T05:10:21;100554.44;;;32.34;57.49
36798;BME280;22748;8.426;99.512;2023-08-20T05:12:51;100551.03;;;32.39;57.69
36798;BME280;22748;8.426;99.512;2023-08-20T05:15:25;100541.84;;;32.40;57.58
36798;BME280;22748;8.426;99.512;2023-08-20T05:17:59;100541.41;;;32.43;57.51
36798;BME280;22748;8.426;99.512;2023-08-20T05:20:29;100542.00;;;32.45;56.66
36798;BME280;22748;8.426;99.512;2023-08-20T05:23:00;100530.91;;;32.47;56.29
36798;BME280;22748;8.426;99.512;2023-08-20T05:25:32;100531.28;;;32.50;56.07
36798;BME280;22748;8.426;99.512;2023-08-20T05:28:03;100532.72;;;32.53;56.63
36798;BME280;22748;8.426;99.512;2023-08-20T05:30:35;100529.88;;;32.48;56.88
36798;BME280;22748;8.426;99.512;2023-08-20T05:33:07;100526.34;;;32.47;55.87
36798;BME280;22748;8.426;99.512;2023-08-20T05:35:39;100524.59;;;32.53;55.78
36798;BME280;22748;8.426;99.512;2023-08-20T05:38:10;100519.56;;;32.56;55.97
36798;BME280;22748;8.426;99.512;2023-08-20T05:40:41;100515.31;;;32.61;55.73
36798;BME280;22748;8.426;99.512;2023-08-20T05:43:11;100510.50;;;32.63;56.03
36798;BME280;22748;8.426;99.512;2023-08-20T05:45:42;100508.13;;;32.66;55.27
36798;BME280;22748;8.426;99.512;2023-08-20T05:48:15;100507.91;;;32.68;55.89
36798;BME280;22748;8.426;99.512;2023-08-20T05:50:46;100502.84;;;32.59;55.03
36798;BME280;22748;8.426;99.512;2023-08-20T05:53:17;100491.91;;;32.66;55.51
36798;BME280;22748;8.426;99.512;2023-08-20T05:55:49;100494.59;;;32.66;55.37
36798;BME280;22748;8.426;99.512;2023-08-20T05:58:20;100490.63;;;32.69;55.21
36798;BME280;22748;8.426;99.512;2023-08-20T06:00:50;100482.63;;;32.74;54.93
36798;BME280;22748;8.426;99.512;2023-08-20T06:03:24;100477.88;;;32.81;55.35
36798;BME280;22748;8.426;99.512;2023-08-20T06:05:55;100471.44;;;32.82;55.17
36798;BME280;22748;8.426;99.512;2023-08-20T06:08:26;100471.53;;;32.87;55.09
36798;BME280;22748;8.426;99.512;2023-08-20T06:10:57;100464.47;;;32.86;55.54
36798;BME280;22748;8.426;99.512;2023-08-20T06:13:27;100459.66;;;32.88;55.52
36798;BME280;22748;8.426;99.512;2023-08-20T06:15:58;100461.50;;;32.88;55.01
36798;BME280;22748;8.426;99.512;2023-08-20T06:18:28;100448.44;;;32.96;54.46
36798;BME280;22748;8.426;99.512;2023-08-20T06:21:02;100445.84;;;33.02;54.45
36798;BME280;22748;8.426;99.512;2023-08-20T06:23:32;100437.72;;;33.02;54.38
36798;BME280;22748;8.426;99.512;2023-08-20T06:26:04;100439.59;;;33.01;54.27
36798;BME280;22748;8.426;99.512;2023-08-20T06:28:35;100427.50;;;33.04;53.74
36798;BME280;22748;8.426;99.512;2023-08-20T06:31:05;100427.03;;;33.07;54.22
36798;BME280;22748;8.426;99.512;2023-08-20T06:33:38;100420.41;;;33.14;53.84
36798;BME280;22748;8.426;99.512;2023-08-20T06:36:08;100429.34;;;33.15;54.21
36798;BME280;22748;8.426;99.512;2023-08-20T06:38:38;100424.41;;;33.12;53.79
36798;BME280;22748;8.426;99.512;2023-08-20T06:41:10;100410.97;;;33.17;52.95
36798;BME280;22748;8.426;99.512;2023-08-20T06:43:44;100409.66;;;33.19;53.09
36798;BME280;22748;8.426;99.512;2023-08-20T06:46:15;100402.13;;;33.22;53.63
36798;BME280;22748;8.426;99.512;2023-08-20T06:48:50;100402.44;;;33.25;53.25
36798;BME280;22748;8.426;99.512;2023-08-20T06:51:22;100389.47;;;33.27;53.42
36798;BME280;22748;8.426;99.512;2023-08-20T06:53:54;100381.63;;;33.26;53.92
36798;BME280;22748;8.426;99.512;2023-08-20T06:56:25;100371.63;;;33.26;54.04
36798;BME280;22748;8.426;99.512;2023-08-20T06:58:55;100370.66;;;33.32;53.99
36798;BME280;22748;8.426;99.512;2023-08-20T07:01:27;100369.84;;;33.32;54.28
36798;BME280;22748;8.426;99.512;2023-08-20T07:04:01;100366.13;;;33.38;53.32
36798;BME280;22748;8.426;99.512;2023-08-20T07:06:32;100364.25;;;33.38;53.72
36798;BME280;22748;8.426;99.512;2023-08-20T07:09:02;100366.44;;;33.42;53.64
36798;BME280;22748;8.426;99.512;2023-08-20T07:11:33;100362.44;;;33.44;53.55
36798;BME280;22748;8.426;99.512;2023-08-20T07:14:04;100354.06;;;33.46;53.52
36798;BME280;22748;8.426;99.512;2023-08-20T07:16:36;100351.13;;;33.47;53.79
36798;BME280;22748;8.426;99.512;2023-08-20T07:19:09;100347.09;;;33.50;53.56
36798;BME280;22748;8.426;99.512;2023-08-20T07:21:40;100345.78;;;33.52;52.96
36798;BME280;22748;8.426;99.512;2023-08-20T07:24:11;100344.88;;;33.47;54.03
36798;BME280;22748;8.426;99.512;2023-08-20T07:26:41;100335.34;;;33.44;54.19
36798;BME280;22748;8.426;99.512;2023-08-20T07:29:12;100329.13;;;33.44;54.34
36798;BME280;22748;8.426;99.512;2023-08-20T07:31:41;100333.41;;;33.39;53.97
36798;BME280;22748;8.426;99.512;2023-08-20T07:34:14;100339.97;;;33.44;53.50
36798;BME280;22748;8.426;99.512;2023-08-20T07:36:44;100324.34;;;33.51;53.32
36798;BME280;22748;8.426;99.512;2023-08-20T07:39:16;100313.06;;;33.54;53.17
36798;BME280;22748;8.426;99.512;2023-08-20T07:41:46;100310.91;;;33.56;52.91
36798;BME280;22748;8.426;99.512;2023-08-20T07:44:17;100310.44;;;33.59;52.72
36798;BME280;22748;8.426;99.512;2023-08-20T07:46:47;100320.09;;;33.55;53.31
36798;BME280;22748;8.426;99.512;2023-08-20T07:49:21;100323.38;;;33.57;53.27
36798;BME280;22748;8.426;99.512;2023-08-20T07:51:51;100327.34;;;33.49;53.90
36798;BME280;22748;8.426;99.512;2023-08-20T07:54:22;100332.66;;;33.44;54.40
36798;BME280;22748;8.426;99.512;2023-08-20T07:56:55;100350.78;;;33.44;55.44
36798;BME280;22748;8.426;99.512;2023-08-20T07:59:25;100347.50;;;33.42;56.50
36798;BME280;22748;8.426;99.512;2023-08-20T08:01:55;100348.88;;;33.27;57.44
36798;BME280;22748;8.426;99.512;2023-08-20T08:04:28;100351.53;;;33.22;57.32
36798;BME280;22748;8.426;99.512;2023-08-20T08:07:00;100349.63;;;33.23;58.37
36798;BME280;22748;8.426;99.512;2023-08-20T08:09:31;100360.22;;;33.24;57.63
36798;BME280;22748;8.426;99.512;2023-08-20T08:12:03;100352.41;;;33.11;58.28
36798;BME280;22748;8.426;99.512;2023-08-20T08:14:33;100347.94;;;33.05;58.50
36798;BME280;22748;8.426;99.512;2023-08-20T08:17:05;100331.13;;;33.03;58.41
36798;BME280;22748;8.426;99.512;2023-08-20T08:19:41;100318.69;;;33.02;58.49
36798;BME280;22748;8.426;99.512;2023-08-20T08:22:13;100308.66;;;32.85;58.30
36798;BME280;22748;8.426;99.512;2023-08-20T08:24:44;100304.47;;;32.77;58.88
36798;BME280;22748;8.426;99.512;2023-08-20T08:27:14;100306.44;;;32.82;59.01
36798;BME280;22748;8.426;99.512;2023-08-20T08:29:44;100297.25;;;32.83;59.01
36798;BME280;22748;8.426;99.512;2023-08-20T08:32:16;100299.31;;;32.76;58.57
36798;BME280;22748;8.426;99.512;2023-08-20T08:34:48;100312.16;;;32.69;59.02
36798;BME280;22748;8.426;99.512;2023-08-20T08:37:18;100318.84;;;32.66;59.62
36798;BME280;22748;8.426;99.512;2023-08-20T08:39:49;100308.88;;;32.67;59.83
36798;BME280;22748;8.426;99.512;2023-08-20T08:42:22;100311.00;;;32.65;59.23
36798;BME280;22748;8.426;99.512;2023-08-20T08:44:55;100315.56;;;32.64;58.89
36798;BME280;22748;8.426;99.512;2023-08-20T08:47:28;100316.94;;;32.38;59.67
36798;BME280;22748;8.426;99.512;2023-08-20T08:50:02;100322.56;;;32.48;59.81
36798;BME280;22748;8.426;99.512;2023-08-20T08:52:33;100315.03;;;32.50;60.27
36798;BME280;22748;8.426;99.512;2023-08-20T08:55:05;100318.34;;;32.52;60.45
36798;BME280;22748;8.426;99.512;2023-08-20T08:57:37;100309.13;;;32.25;61.42
36798;BME280;22748;8.426;99.512;2023-08-20T09:00:08;100315.94;;;32.27;61.73
36798;BME280;22748;8.426;99.512;2023-08-20T09:02:39;100322.44;;;32.14;62.22
36798;BME280;22748;8.426;99.512;2023-08-20T09:05:14;100336.31;;;31.83;62.76
36798;BME280;22748;8.426;99.512;2023-08-20T09:07:45;100343.56;;;31.94;62.50
36798;BME280;22748;8.426;99.512;2023-08-20T09:10:19;100345.00;;;32.08;62.12
36798;BME280;22748;8.426;99.512;2023-08-20T09:12:50;100348.28;;;32.10;61.90
36798;BME280;22748;8.426;99.512;2023-08-20T09:15:20;100358.16;;;32.16;61.90
36798;BME280;22748;8.426;99.512;2023-08-20T09:17:51;100368.47;;;32.20;61.49
36798;BME280;22748;8.426;99.512;2023-08-20T09:20:26;100384.94;;;32.06;61.63
36798;BME280;22748;8.426;99.512;2023-08-20T09:23:04;100378.22;;;32.09;61.68
36798;BME280;22748;8.426;99.512;2023-08-20T09:25:36;100377.41;;;32.08;61.34
36798;BME280;22748;8.426;99.512;2023-08-20T09:28:07;100385.28;;;32.10;61.32
36798;BME280;22748;8.426;99.512;2023-08-20T09:30:38;100377.75;;;32.12;61.70
36798;BME280;22748;8.426;99.512;2023-08-20T09:33:11;100383.41;;;32.10;61.45
36798;BME280;22748;8.426;99.512;2023-08-20T09:35:49;100377.41;;;32.08;61.39
36798;BME280;22748;8.426;99.512;2023-08-20T09:38:22;100377.75;;;32.00;61.83
36798;BME280;22748;8.426;99.512;2023-08-20T09:40:54;100367.91;;;32.06;61.50
36798;BME280;22748;8.426;99.512;2023-08-20T09:43:31;100363.91;;;32.08;62.05
36798;BME280;22748;8.426;99.512;2023-08-20T09:46:10;100369.53;;;32.07;62.03
36798;BME280;22748;8.426;99.512;2023-08-20T09:48:44;100367.06;;;32.05;61.87
36798;BME280;22748;8.426;99.512;2023-08-20T09:51:24;100370.13;;;32.09;61.99
36798;BME280;22748;8.426;99.512;2023-08-20T09:53:59;100362.97;;;32.03;62.26
36798;BME280;22748;8.426;99.512;2023-08-20T09:56:31;100353.47;;;32.00;62.32
36798;BME280;22748;8.426;99.512;2023-08-20T09:59:06;100350.38;;;31.85;62.73
36798;BME280;22748;8.426;99.512;2023-08-20T10:01:38;100345.34;;;31.76;62.92
36798;BME280;22748;8.426;99.512;2023-08-20T10:04:09;100341.41;;;31.37;63.45
36798;BME280;22748;8.426;99.512;2023-08-20T10:06:46;100337.28;;;31.23;64.12
36798;BME280;22748;8.426;99.512;2023-08-20T10:09:18;100338.50;;;30.96;64.76
36798;BME280;22748;8.426;99.512;2023-08-20T10:11:49;100342.91;;;30.49;65.77
36798;BME280;22748;8.426;99.512;2023-08-20T10:14:20;100339.88;;;30.57;65.75
36798;BME280;22748;8.426;99.512;2023-08-20T10:16:53;100335.16;;;30.52;66.13
36798;BME280;22748;8.426;99.512;2023-08-20T10:19:27;100334.75;;;30.86;65.19
36798;BME280;22748;8.426;99.512;2023-08-20T10:22:03;100337.50;;;31.09;64.15
36798;BME280;22748;8.426;99.512;2023-08-20T10:24:52;100343.91;;;30.96;64.54
36798;BME280;22748;8.426;99.512;2023-08-20T10:27:26;100340.25;;;31.21;64.35
36798;BME280;22748;8.426;99.512;2023-08-20T10:29:59;100330.63;;;31.25;63.82
36798;BME280;22748;8.426;99.512;2023-08-20T10:32:47;100352.22;;;31.25;64.10
36798;BME280;22748;8.426;99.512;2023-08-20T10:35:22;100343.06;;;31.26;64.21
36798;BME280;22748;8.426;99.512;2023-08-20T10:38:13;100343.41;;;31.30;64.32
36798;BME280;22748;8.426;99.512;2023-08-20T10:41:00;100346.44;;;31.33;63.98
36798;BME280;22748;8.426;99.512;2023-08-20T10:43:32;100347.53;;;31.32;63.47
36798;BME280;22748;8.426;99.512;2023-08-20T10:46:14;100344.34;;;31.35;63.91
36798;BME280;22748;8.426;99.512;2023-08-20T10:48:48;100345.31;;;31.41;63.34
36798;BME280;22748;8.426;99.512;2023-08-20T10:51:19;100350.50;;;31.43;63.69
36798;BME280;22748;8.426;99.512;2023-08-20T10:54:11;100347.81;;;31.43;63.96
36798;BME280;22748;8.426;99.512;2023-08-20T10:56:44;100353.53;;;31.46;63.67
36798;BME280;22748;8.426;99.512;2023-08-20T10:59:21;100353.91;;;31.50;64.17
36798;BME280;22748;8.426;99.512;2023-08-20T11:01:54;100352.38;;;31.54;63.97
36798;BME280;22748;8.426;99.512;2023-08-20T11:04:27;100362.84;;;31.62;63.85
36798;BME280;22748;8.426;99.512;2023-08-20T11:07:00;100376.94;;;31.64;64.12
36798;BME280;22748;8.426;99.512;2023-08-20T11:09:32;100384.78;;;31.66;63.62
36798;BME280;22748;8.426;99.512;2023-08-20T11:12:03;100388.78;;;31.63;63.38
36798;BME280;22748;8.426;99.512;2023-08-20T11:14:35;100396.16;;;31.56;63.39
36798;BME280;22748;8.426;99.512;2023-08-20T11:17:06;100397.47;;;31.53;63.23
36798;BME280;22748;8.426;99.512;2023-08-20T11:19:37;100395.91;;;31.46;63.64
36798;BME280;22748;8.426;99.512;2023-08-20T11:22:12;100402.50;;;31.50;63.67
36798;BME280;22748;8.426;99.512;2023-08-20T11:24:46;100412.22;;;31.51;63.42
36798;BME280;22748;8.426;99.512;2023-08-20T11:27:28;100416.91;;;31.44;63.66
36798;BME280;22748;8.426;99.512;2023-08-20T11:29:59;100417.88;;;31.49;63.79
36798;BME280;22748;8.426;99.512;2023-08-20T11:32:31;100414.47;;;31.54;63.23
36798;BME280;22748;8.426;99.512;2023-08-20T11:35:05;100421.97;;;31.52;63.29
36798;BME280;22748;8.426;99.512;2023-08-20T11:37:37;100424.09;;;31.50;63.26
36798;BME280;22748;8.426;99.512;2023-08-20T11:40:27;100422.44;;;31.49;63.54
36798;BME280;22748;8.426;99.512;2023-08-20T11:42:58;100423.38;;;31.43;63.72
36798;BME280;22748;8.426;99.512;2023-08-20T11:45:29;100423.78;;;31.40;63.63
36798;BME280;22748;8.426;99.512;2023-08-20T11:48:01;100426.97;;;31.36;63.99
36798;BME280;22748;8.426;99.512;2023-08-20T11:50:31;100422.97;;;31.39;63.99
36798;BME280;22748;8.426;99.512;2023-08-20T11:53:05;100429.66;;;31.36;64.23
36798;BME280;22748;8.426;99.512;2023-08-20T11:55:41;100420.19;;;31.46;63.27
36798;BME280;22748;8.426;99.512;2023-08-20T11:58:15;100422.91;;;31.46;63.45
36798;BME280;22748;8.426;99.512;2023-08-20T12:00:50;100431.06;;;31.39;63.64
36798;BME280;22748;8.426;99.512;2023-08-20T12:03:21;100426.47;;;31.40;63.70
36798;BME280;22748;8.426;99.512;2023-08-20T12:05:52;100420.50;;;31.37;64.29
36798;BME280;22748;8.426;99.512;2023-08-20T12:08:23;100423.19;;;31.37;64.21
36798;BME280;22748;8.426;99.512;2023-08-20T12:10:58;100409.69;;;31.37;64.28
36798;BME280;22748;8.426;99.512;2023-08-20T12:13:29;100414.06;;;31.39;63.94
36798;BME280;22748;8.426;99.512;2023-08-20T12:15:59;100411.38;;;31.39;63.49
36798;BME280;22748;8.426;99.512;2023-08-20T12:18:29;100413.00;;;31.40;63.45
36798;BME280;22748;8.426;99.512;2023-08-20T12:21:04;100414.66;;;31.41;63.47
36798;BME280;22748;8.426;99.512;2023-08-20T12:23:35;100413.00;;;31.40;63.56
36798;BME280;22748;8.426;99.512;2023-08-20T12:26:17;100413.00;;;31.40;63.65
36798;BME280;22748;8.426;99.512;2023-08-20T12:28:48;100417.13;;;31.42;63.40
36798;BME280;22748;8.426;99.512;2023-08-20T12:31:20;100410.88;;;31.42;63.73
36798;BME280;22748;8.426;99.512;2023-08-20T12:33:51;100425.44;;;31.41;63.74
36798;BME280;22748;8.426;99.512;2023-08-20T12:36:22;100424.59;;;31.40;63.86
36798;BME280;22748;8.426;99.512;2023-08-20T12:38:53;100421.69;;;31.42;63.76
36798;BME280;22748;8.426;99.512;2023-08-20T12:41:32;100421.69;;;31.42;63.60
36798;BME280;22748;8.426;99.512;2023-08-20T12:44:04;100418.56;;;31.45;63.60
36798;BME280;22748;8.426;99.512;2023-08-20T12:46:35;100434.56;;;31.40;63.37
36798;BME280;22748;8.426;99.512;2023-08-20T12:49:06;100437.06;;;31.41;63.75
36798;BME280;22748;8.426;99.512;2023-08-20T12:51:41;100439.97;;;31.40;63.48
36798;BME280;22748;8.426;99.512;2023-08-20T12:54:12;100440.44;;;31.36;63.61
36798;BME280;22748;8.426;99.512;2023-08-20T12:56:46;100454.38;;;31.33;63.76
36798;BME280;22748;8.426;99.512;2023-08-20T12:59:17;100455.31;;;31.27;63.76
36798;BME280;22748;8.426;99.512;2023-08-20T13:01:48;100459.44;;;31.30;63.94
36798;BME280;22748;8.426;99.512;2023-08-20T13:04:20;100461.06;;;31.31;64.17
36798;BME280;22748;8.426;99.512;2023-08-20T13:06:52;100460.84;;;31.32;64.10
36798;BME280;22748;8.426;99.512;2023-08-20T13:09:22;100458.75;;;31.34;64.18
36798;BME280;22748;8.426;99.512;2023-08-20T13:12:01;100459.56;;;31.35;63.87
36798;BME280;22748;8.426;99.512;2023-08-20T13:14:37;100474.47;;;31.37;63.97
36798;BME280;22748;8.426;99.512;2023-08-20T13:17:09;100481.53;;;31.39;63.90
36798;BME280;22748;8.426;99.512;2023-08-20T13:19:40;100483.41;;;31.38;63.76